createdAt,value
2019-01-08T00:02:15.037Z,92.90
2019-01-08T00:04:43.701Z,92.80
2019-01-08T00:07:12.349Z,92.90
2019-01-08T00:09:42.580Z,92.90
2019-01-08T00:12:11.311Z,92.90
2019-01-08T00:14:40.006Z,92.90
2019-01-08T00:17:08.681Z,92.80
2019-01-08T00:19:37.398Z,92.90
2019-01-08T00:22:06.041Z,92.70
2019-01-08T00:24:34.714Z,92.70
2019-01-08T00:27:03.408Z,92.90
2019-01-08T00:29:33.121Z,93.00
2019-01-08T00:32:01.854Z,93.00
2019-01-08T00:34:30.493Z,93.10
2019-01-08T00:36:59.162Z,93.20
2019-01-08T00:39:27.837Z,93.30
2019-01-08T00:41:56.426Z,93.20
2019-01-08T00:44:25.070Z,93.20
2019-01-08T00:46:53.787Z,93.30
2019-01-08T00:49:22.457Z,93.30
2019-01-08T00:51:51.145Z,93.30
2019-01-08T00:54:19.817Z,93.30
2019-01-08T00:56:48.510Z,93.40
2019-01-08T00:59:17.181Z,93.20
2019-01-08T01:01:45.761Z,93.20
2019-01-08T01:04:14.478Z,93.10
2019-01-08T01:06:43.152Z,93.10
2019-01-08T01:09:11.819Z,93.20
2019-01-08T01:11:40.496Z,93.60
2019-01-08T01:14:09.168Z,93.30
2019-01-08T01:16:40.088Z,93.40
2019-01-08T01:19:08.859Z,93.40
2019-01-08T01:21:37.594Z,93.50
2019-01-08T01:24:06.244Z,93.50
2019-01-08T01:26:34.905Z,93.50
2019-01-08T01:29:03.578Z,93.50
2019-01-08T01:31:33.717Z,93.50
2019-01-08T01:34:02.408Z,93.40
2019-01-08T01:36:31.064Z,93.40
2019-01-08T01:38:59.757Z,93.40
2019-01-08T01:41:28.443Z,93.40
2019-01-08T01:43:57.112Z,93.50
2019-01-08T01:46:25.773Z,93.50
2019-01-08T01:48:54.445Z,93.90
2019-01-08T01:51:23.167Z,93.50
2019-01-08T01:53:52.936Z,93.70
2019-01-08T01:56:21.629Z,93.40
2019-01-08T01:58:50.323Z,93.40
2019-01-08T02:01:19.015Z,93.30
2019-01-08T02:03:47.689Z,93.40
2019-01-08T02:06:16.361Z,93.40
2019-01-08T02:08:45.040Z,93.30
2019-01-08T02:11:13.690Z,93.30
2019-01-08T02:13:42.524Z,93.30
2019-01-08T02:16:11.186Z,93.30
2019-01-08T02:18:39.953Z,93.30
2019-01-08T02:21:08.677Z,93.20
2019-01-08T02:23:37.320Z,93.10
2019-01-08T02:26:05.911Z,93.10
2019-01-08T02:28:34.552Z,93.10
2019-01-08T02:31:03.279Z,93.10
2019-01-08T02:33:31.912Z,93.00
2019-01-08T02:36:00.547Z,93.00
2019-01-08T02:38:29.220Z,92.90
2019-01-08T02:40:57.888Z,93.00
2019-01-08T02:43:26.616Z,93.40
2019-01-08T02:45:55.283Z,93.10
2019-01-08T02:48:23.974Z,93.10
2019-01-08T02:50:52.665Z,93.20
2019-01-08T02:53:21.364Z,93.20
2019-01-08T02:55:50.032Z,93.30
2019-01-08T02:58:18.704Z,93.40
2019-01-08T03:00:47.368Z,93.50
2019-01-08T03:03:16.039Z,93.70
2019-01-08T03:05:44.742Z,93.80
2019-01-08T03:08:13.417Z,93.90
2019-01-08T03:10:42.080Z,94.00
2019-01-08T03:13:10.780Z,94.20
2019-01-08T03:15:39.442Z,94.30
2019-01-08T03:18:08.101Z,94.30
2019-01-08T03:20:36.802Z,94.40
2019-01-08T03:23:05.510Z,95.10
2019-01-08T03:25:34.096Z,94.70
2019-01-08T03:28:02.764Z,94.70
2019-01-08T03:30:31.452Z,94.70
2019-01-08T03:33:00.084Z,94.90
2019-01-08T03:35:28.734Z,94.90
2019-01-08T03:37:57.340Z,95.00
2019-01-08T03:40:26.059Z,95.10
2019-01-08T03:42:54.724Z,95.20
2019-01-08T03:45:23.386Z,95.30
2019-01-08T03:47:52.038Z,95.70
2019-01-08T03:50:20.716Z,95.40
2019-01-08T03:52:49.401Z,95.40
2019-01-08T03:55:17.959Z,95.50
2019-01-08T03:57:47.818Z,95.30
2019-01-08T04:00:16.462Z,95.40
2019-01-08T04:02:45.142Z,95.30
2019-01-08T04:05:13.814Z,95.20
2019-01-08T04:07:42.456Z,95.30
2019-01-08T04:10:11.135Z,95.20
2019-01-08T04:12:39.808Z,95.20
2019-01-08T04:15:08.521Z,95.20
2019-01-08T04:17:37.207Z,95.30
2019-01-08T04:20:05.881Z,95.30
2019-01-08T04:22:34.564Z,95.20
2019-01-08T04:25:03.237Z,95.20
2019-01-08T04:27:31.908Z,95.00
2019-01-08T04:30:00.564Z,95.00
2019-01-08T04:32:29.286Z,94.90
2019-01-08T04:34:57.965Z,94.80
2019-01-08T04:37:26.620Z,94.80
2019-01-08T04:39:55.319Z,95.10
2019-01-08T04:42:23.984Z,94.70
2019-01-08T04:44:52.658Z,94.70
2019-01-08T04:47:21.420Z,94.70
2019-01-08T04:49:51.549Z,94.70
2019-01-08T04:52:20.233Z,94.80
2019-01-08T04:54:48.893Z,94.90
2019-01-08T04:57:17.425Z,95.00
2019-01-08T04:59:46.084Z,95.10
2019-01-08T05:02:14.752Z,95.10
2019-01-08T05:04:43.402Z,95.20
2019-01-08T05:07:13.163Z,95.70
2019-01-08T05:09:41.827Z,95.40
2019-01-08T05:12:10.504Z,95.60
2019-01-08T05:14:39.169Z,95.60
2019-01-08T05:17:07.839Z,95.60
2019-01-08T05:19:36.571Z,95.50
2019-01-08T05:22:05.240Z,95.50
2019-01-08T05:24:33.953Z,95.60
2019-01-08T05:27:02.620Z,95.60
2019-01-08T05:29:33.338Z,95.60
2019-01-08T05:32:01.973Z,95.50
2019-01-08T05:34:30.639Z,95.50
2019-01-08T05:36:59.447Z,95.50
2019-01-08T05:39:28.116Z,95.80
2019-01-08T05:41:56.841Z,95.50
2019-01-08T05:44:25.510Z,95.70
2019-01-08T05:46:54.182Z,95.60
2019-01-08T05:49:22.858Z,95.80
2019-01-08T05:51:51.528Z,95.60
2019-01-08T05:54:20.192Z,95.60
2019-01-08T05:56:48.900Z,95.60
2019-01-08T05:59:17.648Z,95.60
2019-01-08T06:01:46.378Z,95.50
2019-01-08T06:04:15.015Z,95.40
2019-01-08T06:06:43.715Z,95.40
2019-01-08T06:09:13.583Z,95.20
2019-01-08T06:11:42.265Z,95.20
2019-01-08T06:14:10.969Z,95.20
2019-01-08T06:16:39.679Z,95.20
2019-01-08T06:19:08.483Z,95.20
2019-01-08T06:21:37.115Z,95.20
2019-01-08T06:24:05.806Z,95.00
2019-01-08T06:26:34.510Z,95.10
2019-01-08T06:29:03.286Z,95.10
2019-01-08T06:31:33.644Z,95.10
2019-01-08T06:34:02.353Z,95.00
2019-01-08T06:36:31.036Z,94.90
2019-01-08T06:38:59.778Z,95.00
2019-01-08T06:41:28.475Z,95.00
2019-01-08T06:43:57.128Z,94.90
2019-01-08T06:46:25.813Z,94.90
2019-01-08T06:48:54.518Z,94.70
2019-01-08T06:51:23.258Z,94.60
2019-01-08T06:53:51.917Z,94.60
2019-01-08T06:56:20.605Z,94.70
2019-01-08T06:58:49.271Z,94.70
2019-01-08T07:01:17.928Z,94.90
2019-01-08T07:03:46.618Z,94.90
2019-01-08T07:06:15.318Z,94.80
2019-01-08T07:08:44.096Z,94.80
2019-01-08T07:11:12.929Z,94.70
2019-01-08T07:13:41.563Z,94.80
2019-01-08T07:16:10.226Z,94.40
2019-01-08T07:18:38.911Z,94.20
2019-01-08T07:21:07.650Z,94.10
2019-01-08T07:23:36.298Z,93.90
2019-01-08T07:26:05.000Z,93.80
2019-01-08T07:28:33.654Z,93.70
2019-01-08T07:31:02.308Z,93.50
2019-01-08T07:33:30.980Z,93.50
2019-01-08T07:35:59.748Z,93.20
2019-01-08T07:38:28.416Z,93.00
2019-01-08T07:40:57.118Z,93.10
2019-01-08T07:43:25.816Z,93.00
2019-01-08T07:45:54.492Z,92.80
2019-01-08T07:48:23.137Z,92.80
2019-01-08T07:50:51.807Z,92.50
2019-01-08T07:53:20.471Z,92.70
2019-01-08T07:55:49.160Z,92.50
2019-01-08T07:58:17.831Z,92.30
2019-01-08T08:00:50.081Z,92.30
2019-01-08T08:03:16.874Z,92.30
2019-01-08T08:05:45.541Z,92.40
2019-01-08T08:08:14.218Z,92.30
2019-01-08T08:10:42.882Z,92.20
2019-01-08T08:13:11.536Z,92.20
2019-01-08T08:15:40.203Z,92.20
2019-01-08T08:18:08.926Z,92.20
2019-01-08T08:20:37.613Z,92.20
2019-01-08T08:23:06.301Z,92.10
2019-01-08T08:25:35.025Z,92.10
2019-01-08T08:28:03.693Z,92.10
2019-01-08T08:30:32.401Z,91.70
2019-01-08T08:33:01.107Z,91.60
2019-01-08T08:35:29.813Z,91.20
2019-01-08T08:37:58.480Z,91.00
2019-01-08T08:40:27.143Z,90.90
2019-01-08T08:42:55.831Z,90.70
2019-01-08T08:45:24.512Z,90.80
2019-01-08T08:47:53.184Z,90.20
2019-01-08T08:50:21.848Z,90.30
2019-01-08T08:52:50.557Z,90.00
2019-01-08T08:55:19.206Z,89.60
2019-01-08T08:57:47.880Z,89.90
2019-01-08T09:00:16.544Z,90.10
2019-01-08T09:02:45.240Z,90.10
2019-01-08T09:05:13.896Z,89.50
2019-01-08T09:07:42.562Z,90.00
2019-01-08T09:10:11.304Z,90.10
2019-01-08T09:12:39.984Z,90.00
2019-01-08T09:15:08.674Z,89.60
2019-01-08T09:17:37.352Z,89.30
2019-01-08T09:20:08.924Z,89.30
2019-01-08T09:22:37.592Z,89.40
2019-01-08T09:25:07.109Z,88.40
2019-01-08T09:27:35.784Z,88.50
2019-01-08T09:30:06.820Z,88.60
2019-01-08T09:32:35.646Z,89.00
2019-01-08T09:35:05.497Z,89.30
2019-01-08T09:37:34.200Z,89.20
2019-01-08T09:40:03.182Z,89.00
2019-01-08T09:42:32.030Z,88.90
2019-01-08T09:45:00.714Z,89.30
2019-01-08T09:47:29.386Z,88.30
2019-01-08T09:49:58.099Z,87.90
2019-01-08T09:52:26.738Z,86.80
2019-01-08T09:54:55.443Z,87.20
2019-01-08T09:57:24.107Z,88.20
2019-01-08T09:59:52.868Z,89.60
2019-01-08T10:02:21.580Z,89.60
2019-01-08T10:04:50.269Z,89.10
2019-01-08T10:07:18.942Z,88.60
2019-01-08T10:09:47.622Z,87.20
2019-01-08T10:12:16.286Z,88.10
2019-01-08T10:14:44.956Z,87.20
2019-01-08T10:17:13.658Z,86.70
2019-01-08T10:19:42.488Z,86.20
2019-01-08T10:22:11.158Z,84.00
2019-01-08T10:24:39.825Z,84.00
2019-01-08T10:27:08.524Z,86.10
2019-01-08T10:29:37.231Z,86.20
2019-01-08T10:32:05.947Z,87.20
2019-01-08T10:34:34.621Z,87.20
2019-01-08T10:37:03.321Z,86.40
2019-01-08T10:39:31.990Z,85.80
2019-01-08T10:42:00.688Z,84.60
2019-01-08T10:44:29.370Z,83.70
2019-01-08T10:46:58.048Z,84.00
2019-01-08T10:49:26.726Z,85.00
2019-01-08T10:51:55.405Z,85.80
2019-01-08T10:54:24.122Z,85.90
2019-01-08T10:56:52.784Z,87.30
2019-01-08T10:59:21.500Z,87.30
2019-01-08T11:01:50.324Z,86.90
2019-01-08T11:04:18.992Z,87.60
2019-01-08T11:06:47.665Z,87.60
2019-01-08T11:09:16.345Z,87.90
2019-01-08T11:11:45.109Z,88.30
2019-01-08T11:14:13.765Z,88.80
2019-01-08T11:16:42.454Z,90.20
2019-01-08T11:19:11.110Z,90.50
2019-01-08T11:21:39.806Z,90.00
2019-01-08T11:24:08.490Z,89.30
2019-01-08T11:26:37.201Z,89.80
2019-01-08T11:29:05.911Z,89.80
2019-01-08T11:31:34.573Z,89.60
2019-01-08T11:34:03.268Z,90.10
2019-01-08T11:36:31.965Z,90.40
2019-01-08T11:39:00.676Z,90.50
2019-01-08T11:41:29.413Z,90.70
2019-01-08T11:43:58.087Z,90.50
2019-01-08T11:46:26.805Z,90.40
2019-01-08T11:48:55.462Z,90.20
2019-01-08T11:51:24.155Z,90.10
2019-01-08T11:53:52.819Z,90.10
2019-01-08T11:56:21.501Z,90.10
2019-01-08T11:58:50.162Z,90.40
2019-01-08T12:01:21.826Z,90.90
2019-01-08T12:03:50.597Z,91.10
2019-01-08T12:06:19.277Z,91.20
2019-01-08T12:08:47.992Z,91.10
2019-01-08T12:11:16.983Z,91.10
2019-01-08T12:13:47.233Z,91.10
2019-01-08T12:16:15.939Z,91.30
2019-01-08T12:18:44.568Z,91.10
2019-01-08T12:21:13.350Z,91.30
2019-01-08T12:23:41.977Z,91.50
2019-01-08T12:26:10.720Z,91.30
2019-01-08T12:28:39.379Z,91.30
2019-01-08T12:31:08.060Z,91.40
2019-01-08T12:33:36.762Z,91.60
2019-01-08T12:36:05.473Z,91.50
2019-01-08T12:38:34.130Z,91.10
2019-01-08T12:41:02.778Z,91.10
2019-01-08T12:43:46.441Z,91.00
2019-01-08T12:46:30.820Z,90.80
2019-01-08T12:48:59.440Z,90.70
2019-01-08T12:51:28.132Z,90.80
2019-01-08T12:53:56.845Z,90.90
2019-01-08T12:56:25.522Z,91.00
2019-01-08T12:58:54.177Z,91.30
2019-01-08T13:01:22.858Z,91.80
2019-01-08T13:03:51.529Z,91.60
2019-01-08T13:06:20.191Z,91.80
2019-01-08T13:08:48.847Z,92.30
2019-01-08T13:11:17.579Z,92.00
2019-01-08T13:13:46.248Z,92.00
2019-01-08T13:16:14.909Z,92.20
2019-01-08T13:18:43.609Z,92.60
2019-01-08T13:21:12.284Z,93.20
2019-01-08T13:23:40.960Z,92.90
2019-01-08T13:26:09.636Z,92.60
2019-01-08T13:28:38.422Z,92.80
2019-01-08T13:31:07.094Z,92.80
2019-01-08T13:33:35.788Z,93.00
2019-01-08T13:36:04.560Z,93.00
2019-01-08T13:38:33.240Z,92.90
2019-01-08T13:41:01.889Z,93.10
2019-01-08T13:43:30.577Z,93.60
2019-01-08T13:45:59.289Z,93.50
2019-01-08T13:48:27.953Z,93.50
2019-01-08T13:50:56.634Z,93.60
2019-01-08T13:53:25.304Z,93.60
2019-01-08T13:55:53.998Z,93.80
2019-01-08T13:58:22.697Z,94.10
2019-01-08T14:00:51.360Z,94.40
2019-01-08T14:03:20.129Z,94.70
2019-01-08T14:05:48.776Z,94.90
2019-01-08T14:08:17.449Z,95.10
2019-01-08T14:10:46.135Z,95.30
2019-01-08T14:13:14.795Z,95.40
2019-01-08T14:15:43.471Z,95.40
2019-01-08T14:18:12.135Z,95.40
2019-01-08T14:20:40.860Z,95.30
2019-01-08T14:23:09.523Z,95.10
2019-01-08T14:25:38.182Z,95.10
2019-01-08T14:28:06.866Z,95.00
2019-01-08T14:30:35.533Z,95.00
2019-01-08T14:33:04.232Z,94.80
2019-01-08T14:35:32.879Z,94.70
2019-01-08T14:38:01.605Z,94.70
2019-01-08T14:40:30.305Z,94.80
2019-01-08T14:42:59.009Z,95.00
2019-01-08T14:45:27.729Z,95.20
2019-01-08T14:47:56.416Z,95.20
2019-01-08T14:50:25.197Z,95.30
2019-01-08T14:52:53.865Z,95.30
2019-01-08T14:55:22.583Z,95.30
2019-01-08T14:57:51.259Z,95.40
2019-01-08T15:00:19.930Z,95.20
2019-01-08T15:02:49.737Z,95.10
2019-01-08T15:05:18.793Z,95.30
2019-01-08T15:07:47.498Z,95.40
2019-01-08T15:10:16.152Z,95.40
2019-01-08T15:12:44.895Z,94.70
2019-01-08T15:15:13.572Z,94.70
2019-01-08T15:17:42.234Z,94.50
2019-01-08T15:20:10.950Z,94.40
2019-01-08T15:22:39.626Z,93.90
2019-01-08T15:25:08.333Z,94.00
2019-01-08T15:27:36.987Z,94.80
2019-01-08T15:30:08.692Z,95.10
2019-01-08T15:32:37.365Z,94.20
2019-01-08T15:35:06.359Z,94.50
2019-01-08T15:37:35.061Z,93.60
2019-01-08T15:40:03.761Z,93.70
2019-01-08T15:42:32.451Z,93.40
2019-01-08T15:45:02.715Z,93.40
2019-01-08T15:47:31.518Z,93.70
2019-01-08T15:50:00.188Z,93.30
2019-01-08T15:52:28.890Z,93.80
2019-01-08T15:54:57.554Z,93.80
2019-01-08T15:57:26.223Z,93.80
2019-01-08T15:59:54.924Z,93.70
2019-01-08T16:02:23.581Z,93.60
2019-01-08T16:04:52.768Z,93.90
2019-01-08T16:07:21.442Z,94.40
2019-01-08T16:09:50.202Z,94.40
2019-01-08T16:12:18.956Z,94.60
2019-01-08T16:14:47.648Z,94.80
2019-01-08T16:17:17.117Z,94.80
2019-01-08T16:19:46.130Z,94.90
2019-01-08T16:22:14.798Z,94.60
2019-01-08T16:24:43.447Z,95.00
2019-01-08T16:27:12.187Z,94.70
2019-01-08T16:29:40.827Z,94.20
2019-01-08T16:32:09.551Z,94.10
2019-01-08T16:34:38.204Z,94.20
2019-01-08T16:37:06.861Z,93.90
2019-01-08T16:39:35.582Z,93.70
2019-01-08T16:42:04.462Z,93.80
2019-01-08T16:44:33.159Z,93.70
2019-01-08T16:47:01.984Z,93.40
2019-01-08T16:49:30.613Z,93.50
2019-01-08T16:51:59.324Z,93.60
2019-01-08T16:54:28.097Z,93.50
2019-01-08T16:56:56.780Z,93.50
2019-01-08T16:59:25.472Z,93.50
2019-01-08T17:01:54.178Z,93.80
2019-01-08T17:04:22.846Z,93.50
2019-01-08T17:06:51.499Z,93.60
2019-01-08T17:09:20.183Z,93.60
2019-01-08T17:11:48.887Z,93.60
2019-01-08T17:14:17.553Z,93.90
2019-01-08T17:16:46.240Z,93.90
2019-01-08T17:19:14.880Z,93.90
2019-01-08T17:21:43.555Z,93.80
2019-01-08T17:24:12.477Z,94.30
2019-01-08T17:26:42.721Z,94.50
2019-01-08T17:29:11.394Z,94.70
2019-01-08T17:31:40.093Z,93.30
2019-01-08T17:34:08.785Z,93.30
2019-01-08T17:36:37.519Z,93.70
2019-01-08T17:39:06.889Z,93.50
2019-01-08T17:41:35.548Z,93.80
2019-01-08T17:44:04.225Z,93.80
2019-01-08T17:46:32.894Z,93.70
2019-01-08T17:49:01.574Z,93.50
2019-01-08T17:51:30.238Z,93.40
2019-01-08T17:53:58.960Z,93.60
2019-01-08T17:56:27.616Z,93.80
2019-01-08T17:58:59.581Z,93.60
2019-01-08T18:01:28.239Z,93.50
2019-01-08T18:03:56.938Z,93.60
2019-01-08T18:06:25.622Z,93.40
2019-01-08T18:08:54.287Z,93.40
2019-01-08T18:11:23.027Z,93.90
2019-01-08T18:13:51.840Z,93.60
2019-01-08T18:16:23.629Z,93.20
2019-01-08T18:18:52.360Z,92.90
2019-01-08T18:21:23.184Z,93.00
2019-01-08T18:23:51.920Z,93.10
2019-01-08T18:31:35.466Z,94.00
2019-01-08T18:34:04.186Z,93.50
2019-01-08T18:36:32.922Z,93.70
2019-01-08T18:39:01.642Z,94.00
2019-01-08T18:41:30.383Z,94.10
2019-01-08T18:43:59.079Z,94.20
2019-01-08T18:46:27.841Z,94.10
2019-01-08T18:48:56.524Z,94.10
2019-01-08T18:51:25.263Z,94.00
2019-01-08T18:53:53.965Z,94.10
2019-01-08T18:56:22.675Z,94.20
2019-01-08T18:58:51.396Z,94.10
2019-01-08T19:01:20.064Z,94.10
2019-01-08T19:03:48.739Z,94.10
2019-01-08T19:06:17.434Z,94.30
2019-01-08T19:09:20.948Z,94.30
2019-01-08T19:11:49.616Z,94.10
2019-01-08T19:14:19.789Z,94.10
2019-01-08T19:16:48.519Z,94.00
2019-01-08T19:19:17.320Z,94.00
2019-01-08T19:21:46.081Z,94.50
2019-01-08T19:24:14.771Z,94.80
2019-01-08T19:26:43.446Z,94.30
2019-01-08T19:29:12.316Z,94.80
2019-01-08T19:31:42.970Z,94.40
2019-01-08T19:34:11.409Z,94.30
2019-01-08T19:36:40.091Z,94.30
2019-01-08T19:39:08.897Z,94.20
2019-01-08T19:41:37.621Z,94.50
2019-01-08T19:44:06.348Z,94.40
2019-01-08T19:46:35.096Z,94.20
2019-01-08T19:49:03.830Z,94.30
2019-01-08T19:51:32.512Z,94.10
2019-01-08T19:54:01.274Z,94.10
2019-01-08T19:56:29.979Z,94.20
2019-01-08T19:58:58.854Z,94.10
2019-01-08T20:01:27.792Z,94.30
2019-01-08T20:03:56.554Z,94.50
2019-01-08T20:06:25.265Z,94.40
2019-01-08T20:08:53.952Z,94.40
2019-01-08T20:11:22.677Z,94.30
2019-01-08T20:13:51.348Z,94.70
2019-01-08T20:16:20.021Z,94.30
2019-01-08T20:18:48.748Z,94.10
2019-01-08T20:21:17.466Z,94.20
2019-01-08T20:23:46.269Z,94.30
2019-01-08T20:26:17.929Z,94.40
2019-01-08T20:28:49.868Z,94.60
2019-01-08T20:31:18.614Z,94.70
2019-01-08T20:33:47.287Z,94.70
2019-01-08T20:36:15.958Z,94.90
2019-01-08T20:38:44.650Z,94.90
2019-01-08T20:41:13.992Z,95.40
2019-01-08T20:43:42.947Z,94.80
2019-01-08T20:46:11.611Z,94.50
2019-01-08T20:48:40.336Z,94.40
2019-01-08T20:51:09.030Z,94.50
2019-01-08T20:53:37.813Z,94.50
2019-01-08T20:56:07.080Z,94.70
2019-01-08T20:58:35.850Z,94.70
2019-01-08T21:01:04.526Z,94.80
2019-01-08T21:03:33.307Z,94.70
2019-01-08T21:06:02.954Z,94.70
2019-01-08T21:08:31.610Z,94.70
2019-01-08T21:11:00.281Z,94.70
2019-01-08T21:13:28.954Z,94.70
2019-01-08T21:15:57.749Z,94.80
2019-01-08T21:18:26.401Z,94.80
2019-01-08T21:20:55.068Z,94.90
2019-01-08T21:23:23.748Z,94.70
2019-01-08T21:25:52.442Z,94.70
2019-01-08T21:28:21.111Z,94.70
2019-01-08T21:30:49.773Z,94.50
2019-01-08T21:33:20.110Z,94.80
2019-01-08T21:35:48.784Z,94.40
2019-01-08T21:38:17.500Z,94.80
2019-01-08T21:40:46.177Z,94.80
2019-01-08T21:43:14.863Z,94.30
2019-01-08T21:45:45.652Z,94.30
2019-01-08T21:48:14.443Z,94.60
2019-01-08T21:50:43.176Z,94.60
2019-01-08T21:53:11.819Z,94.70
2019-01-08T21:55:40.526Z,94.80
2019-01-08T21:58:09.221Z,95.00
2019-01-08T22:00:37.888Z,95.00
2019-01-08T22:03:06.565Z,95.10
2019-01-08T22:05:35.245Z,95.00
2019-01-08T22:08:03.984Z,95.10
2019-01-08T22:10:32.648Z,95.10
2019-01-08T22:13:01.325Z,95.40
2019-01-08T22:15:30.008Z,95.60
2019-01-08T22:17:58.680Z,95.80
2019-01-08T22:20:27.360Z,94.80
2019-01-08T22:22:56.042Z,94.80
2019-01-08T22:25:24.849Z,94.80
2019-01-08T22:27:53.539Z,95.00
2019-01-08T22:30:22.201Z,95.10
2019-01-08T22:32:52.292Z,95.00
2019-01-08T22:35:20.989Z,95.00
2019-01-08T22:37:49.706Z,94.90
2019-01-08T22:40:18.367Z,94.90
2019-01-08T22:42:47.052Z,94.80
2019-01-08T22:45:15.728Z,94.60
2019-01-08T22:47:44.514Z,94.70
2019-01-08T22:50:13.225Z,94.70
2019-01-08T22:52:41.898Z,94.90
2019-01-08T22:55:10.572Z,95.10
2019-01-08T22:57:39.233Z,95.30
2019-01-08T23:00:15.222Z,95.40
2019-01-08T23:02:44.052Z,95.60
2019-01-08T23:05:12.752Z,95.60
2019-01-08T23:07:41.483Z,95.60
2019-01-08T23:10:10.173Z,95.50
2019-01-08T23:12:38.843Z,95.60
2019-01-08T23:15:08.213Z,95.60
2019-01-08T23:17:36.881Z,95.70
2019-01-08T23:20:07.836Z,95.70
2019-01-08T23:22:36.494Z,95.90
2019-01-08T23:25:05.198Z,95.90
2019-01-08T23:27:33.874Z,95.70
2019-01-08T23:30:02.556Z,95.50
2019-01-08T23:32:31.260Z,95.70
2019-01-08T23:34:59.935Z,95.60
2019-01-08T23:37:28.596Z,95.30
2019-01-08T23:39:57.264Z,95.40
2019-01-08T23:42:25.945Z,95.50
2019-01-08T23:44:54.666Z,95.50
2019-01-08T23:47:23.340Z,95.40
2019-01-08T23:49:52.001Z,95.50
2019-01-08T23:52:29.459Z,95.60
2019-01-08T23:54:58.151Z,95.50
2019-01-08T23:57:26.815Z,95.50
2019-01-08T23:59:55.486Z,95.60
